createdAt,value
2023-03-29T00:00:53.772Z,0.00
2023-03-29T00:06:04.882Z,0.10
2023-03-29T00:11:10.200Z,0.10
2023-03-29T00:16:14.193Z,0.10
2023-03-29T00:21:18.407Z,0.10
2023-03-29T00:26:26.848Z,0.22
2023-03-29T00:31:31.750Z,0.10
2023-03-29T00:36:40.570Z,0.15
2023-03-29T00:41:47.542Z,0.90
2023-03-29T00:46:51.667Z,0.10
2023-03-29T00:51:55.731Z,0.10
2023-03-29T00:57:04.241Z,0.03
2023-03-29T01:02:10.509Z,0.10
2023-03-29T01:07:21.506Z,0.00
2023-03-29T01:12:32.828Z,0.20
2023-03-29T01:17:37.401Z,0.10
2023-03-29T01:22:55.441Z,0.15
2023-03-29T01:28:04.879Z,0.10
2023-03-29T01:33:16.959Z,0.00
2023-03-29T01:38:27.456Z,0.05
2023-03-29T01:43:37.898Z,0.10
2023-03-29T01:48:49.530Z,0.03
2023-03-29T01:54:00.187Z,0.10
2023-03-29T01:59:12.635Z,0.10
2023-03-29T02:04:22.917Z,0.10
2023-03-29T02:09:28.874Z,0.10
2023-03-29T02:14:35.148Z,0.10
2023-03-29T02:24:46.556Z,0.00
2023-03-29T02:29:51.972Z,0.95
2023-03-29T02:35:01.482Z,0.28
2023-03-29T02:40:12.649Z,0.17
2023-03-29T02:45:23.111Z,0.30
2023-03-29T02:50:33.021Z,0.22
2023-03-29T02:55:36.975Z,0.00
2023-03-29T03:00:46.769Z,0.17
2023-03-29T03:05:52.451Z,0.25
2023-03-29T03:10:56.679Z,0.30
2023-03-29T03:16:03.348Z,0.10
2023-03-29T03:21:08.503Z,0.27
2023-03-29T03:26:13.141Z,0.08
2023-03-29T03:31:21.663Z,0.03
2023-03-29T03:36:44.117Z,0.22
2023-03-29T03:41:49.634Z,0.30
2023-03-29T03:46:56.637Z,0.20
2023-03-29T03:52:04.082Z,0.17
2023-03-29T03:57:08.633Z,0.10
2023-03-29T04:02:23.161Z,0.05
2023-03-29T04:07:27.775Z,0.10
2023-03-29T04:12:54.486Z,0.60
2023-03-29T04:29:26.756Z,0.35
2023-03-29T04:34:42.531Z,0.50
2023-03-29T04:39:48.247Z,0.52
2023-03-29T04:44:55.165Z,0.10
2023-03-29T04:50:15.019Z,0.30
2023-03-29T05:01:15.008Z,0.08
2023-03-29T05:06:25.495Z,0.55
2023-03-29T05:11:31.827Z,0.10
2023-03-29T05:22:07.616Z,0.47
2023-03-29T05:27:13.623Z,0.70
2023-03-29T05:32:22.203Z,0.70
2023-03-29T05:42:56.899Z,0.30
2023-03-29T05:48:00.988Z,0.30
2023-03-29T05:53:09.678Z,0.43
2023-03-29T05:58:18.150Z,0.00
2023-03-29T06:03:25.595Z,0.10
2023-03-29T06:14:12.010Z,0.50
2023-03-29T06:19:20.454Z,1.35
2023-03-29T06:24:27.187Z,0.45
2023-03-29T06:35:09.061Z,0.30
2023-03-29T06:40:19.172Z,0.50
2023-03-29T06:45:25.775Z,0.40
2023-03-29T06:50:31.773Z,0.20
2023-03-29T06:55:48.633Z,0.03
2023-03-29T07:01:18.337Z,0.22
2023-03-29T07:11:57.601Z,0.30
2023-03-29T07:17:04.230Z,0.05
2023-03-29T07:22:15.400Z,0.65
2023-03-29T07:27:28.488Z,0.28
2023-03-29T07:32:34.432Z,0.50
2023-03-29T07:38:04.014Z,0.32
2023-03-29T07:43:11.085Z,0.90
2023-03-29T07:48:16.303Z,0.17
2023-03-29T07:53:29.787Z,0.10
2023-03-29T07:58:38.949Z,0.40
2023-03-29T08:03:43.308Z,0.13
2023-03-29T08:14:23.896Z,0.93
2023-03-29T08:19:41.686Z,1.40
2023-03-29T08:24:58.702Z,0.63
2023-03-29T08:30:11.414Z,0.35
2023-03-29T08:35:17.034Z,0.17
2023-03-29T08:40:41.998Z,0.50
2023-03-29T08:46:04.729Z,0.60
2023-03-29T08:51:21.769Z,0.25
2023-03-29T09:02:02.213Z,0.30
2023-03-29T09:07:10.325Z,0.35
2023-03-29T09:12:30.079Z,1.13
2023-03-29T09:17:46.593Z,0.30
2023-03-29T09:23:08.896Z,0.93
2023-03-29T09:28:38.296Z,0.47
2023-03-29T09:33:47.885Z,0.20
2023-03-29T09:38:55.764Z,0.28
2023-03-29T09:44:17.688Z,0.50
2023-03-29T09:49:39.336Z,0.80
2023-03-29T09:54:44.492Z,0.35
2023-03-29T10:00:10.753Z,2.05
2023-03-29T10:10:52.560Z,0.80
2023-03-29T10:16:03.724Z,0.98
2023-03-29T10:21:14.490Z,0.10
2023-03-29T10:26:26.041Z,0.40
2023-03-29T10:31:33.151Z,0.75
2023-03-29T10:36:42.981Z,0.50
2023-03-29T10:41:51.090Z,1.00
2023-03-29T10:46:55.099Z,0.40
2023-03-29T10:52:00.472Z,0.43
2023-03-29T10:57:10.492Z,0.77
2023-03-29T11:02:42.316Z,0.55
2023-03-29T11:08:01.741Z,0.50
2023-03-29T11:13:15.774Z,0.17
2023-03-29T11:18:49.197Z,0.30
2023-03-29T11:24:11.004Z,0.45
2023-03-29T11:29:22.119Z,0.32
2023-03-29T11:34:37.121Z,0.65
2023-03-29T11:39:50.460Z,0.30
2023-03-29T11:44:58.157Z,0.50
2023-03-29T11:50:09.534Z,0.57
2023-03-29T11:55:19.033Z,0.22
2023-03-29T12:00:26.273Z,0.50
2023-03-29T12:05:36.291Z,0.10
2023-03-29T12:10:47.603Z,0.22
2023-03-29T12:15:57.959Z,0.10
2023-03-29T12:27:09.409Z,0.50
2023-03-29T12:32:31.882Z,0.57
2023-03-29T12:38:18.181Z,1.25
2023-03-29T12:43:43.650Z,0.93
2023-03-29T12:49:23.517Z,1.02
2023-03-29T12:54:32.288Z,1.48
2023-03-29T12:59:41.201Z,1.65
2023-03-29T13:04:52.236Z,1.42
2023-03-29T13:15:36.364Z,0.52
2023-03-29T13:20:47.916Z,0.40
2023-03-29T13:26:11.513Z,0.30
2023-03-29T13:31:35.785Z,0.60
2023-03-29T13:36:53.710Z,0.45
2023-03-29T13:42:18.045Z,3.05
2023-03-29T13:47:58.437Z,0.88
2023-03-29T13:53:13.832Z,0.20
2023-03-29T13:58:30.988Z,0.82
2023-03-29T14:03:44.809Z,0.73
2023-03-29T14:08:50.665Z,0.85
2023-03-29T14:13:55.580Z,1.27
2023-03-29T14:19:04.143Z,1.58
2023-03-29T14:24:13.388Z,1.48
2023-03-29T14:29:18.336Z,0.65
2023-03-29T14:34:24.282Z,0.13
2023-03-29T14:39:28.193Z,0.57
2023-03-29T14:44:34.668Z,0.90
2023-03-29T14:49:40.001Z,0.43
2023-03-29T14:54:47.534Z,2.30
2023-03-29T15:05:04.873Z,2.10
2023-03-29T15:10:10.140Z,0.75
2023-03-29T15:20:45.993Z,0.65
2023-03-29T15:25:54.783Z,1.00
2023-03-29T15:31:07.738Z,0.50
2023-03-29T15:36:15.267Z,1.00
2023-03-29T15:41:19.259Z,0.40
2023-03-29T15:46:23.450Z,0.43
2023-03-29T15:51:28.978Z,1.52
2023-03-29T15:56:37.197Z,0.70
2023-03-29T16:01:41.938Z,2.85
2023-03-29T16:06:49.705Z,1.48
2023-03-29T16:11:53.663Z,1.17
2023-03-29T16:17:01.034Z,0.40
2023-03-29T16:22:07.625Z,0.57
2023-03-29T16:27:11.911Z,0.75
2023-03-29T16:32:16.823Z,0.13
2023-03-29T16:37:22.238Z,0.50
2023-03-29T16:42:26.143Z,0.00
2023-03-29T16:47:30.148Z,0.40
2023-03-29T16:52:35.492Z,0.77
2023-03-29T16:57:41.976Z,1.27
2023-03-29T17:02:50.462Z,2.80
2023-03-29T17:07:56.509Z,6.35
2023-03-29T17:13:03.986Z,2.53
2023-03-29T17:18:08.105Z,3.90
2023-03-29T17:23:13.472Z,1.83
2023-03-29T17:28:17.638Z,0.98
2023-03-29T17:33:26.130Z,0.35
2023-03-29T17:38:34.089Z,0.65
2023-03-29T17:43:38.331Z,0.63
2023-03-29T17:48:42.329Z,0.63
2023-03-29T17:53:48.034Z,0.70
2023-03-29T17:58:52.293Z,0.30
2023-03-29T18:03:56.479Z,0.60
2023-03-29T18:09:02.393Z,1.23
2023-03-29T18:14:06.479Z,1.33
2023-03-29T18:19:10.883Z,0.10
2023-03-29T18:24:16.414Z,1.90
2023-03-29T18:29:21.045Z,4.55
2023-03-29T18:34:24.915Z,0.77
2023-03-29T18:39:30.894Z,1.17
2023-03-29T18:44:34.801Z,0.82
2023-03-29T18:49:38.789Z,0.50
2023-03-29T18:54:44.074Z,0.90
2023-03-29T18:59:48.085Z,0.60
2023-03-29T19:04:52.038Z,0.13
2023-03-29T19:09:57.424Z,0.43
2023-03-29T19:15:01.438Z,0.60
2023-03-29T19:25:39.095Z,0.30
2023-03-29T19:30:43.000Z,1.00
2023-03-29T19:35:47.535Z,0.52
2023-03-29T19:40:53.488Z,0.38
2023-03-29T19:45:57.417Z,0.50
2023-03-29T19:51:02.888Z,2.67
2023-03-29T19:56:11.079Z,2.78
2023-03-29T20:01:22.145Z,4.53
2023-03-29T20:06:26.292Z,5.88
2023-03-29T20:11:31.634Z,4.00
2023-03-29T20:16:35.789Z,2.67
2023-03-29T20:21:39.837Z,2.25
2023-03-29T20:26:45.144Z,0.52
2023-03-29T20:31:49.159Z,1.08
2023-03-29T20:36:55.217Z,1.15
2023-03-29T20:42:00.759Z,1.63
2023-03-29T20:47:08.147Z,0.57
2023-03-29T20:52:15.552Z,0.45
2023-03-29T20:57:22.025Z,1.25
2023-03-29T21:02:26.388Z,2.58
2023-03-29T21:07:30.378Z,0.75
2023-03-29T21:13:00.347Z,0.60
2023-03-29T21:18:04.720Z,1.52
2023-03-29T21:23:08.775Z,1.52
2023-03-29T21:28:14.105Z,1.20
2023-03-29T21:33:18.038Z,1.63
2023-03-29T21:38:21.966Z,0.68
2023-03-29T21:43:27.527Z,1.30
2023-03-29T21:53:59.498Z,0.40
2023-03-29T21:59:04.942Z,1.92
2023-03-29T22:04:15.713Z,0.52
2023-03-29T22:09:26.265Z,0.73
2023-03-29T22:14:34.783Z,1.13
2023-03-29T22:19:41.939Z,1.25
2023-03-29T22:24:45.870Z,1.67
2023-03-29T22:29:51.280Z,1.20
2023-03-29T22:34:55.191Z,1.10
2023-03-29T22:39:59.620Z,0.17
2023-03-29T22:45:05.336Z,0.15
2023-03-29T22:50:10.243Z,1.20
2023-03-29T22:55:14.198Z,2.47
2023-03-29T23:00:20.499Z,0.82
2023-03-29T23:05:28.375Z,0.60
2023-03-29T23:10:32.480Z,0.20
2023-03-29T23:15:39.049Z,0.70
2023-03-29T23:20:44.410Z,0.93
2023-03-29T23:25:50.027Z,0.43
2023-03-29T23:31:00.417Z,1.55
2023-03-29T23:36:06.728Z,2.40
2023-03-29T23:41:16.374Z,2.27
2023-03-29T23:46:21.754Z,0.20
2023-03-29T23:51:29.045Z,1.67
2023-03-29T23:56:32.954Z,1.20
